Terminal Aerodrome Forecast
Issued by NWS

Home | Current Version | Previous Version | Graphics & Text | Print | Product List | Glossary On
Versions: 1 2 3 4 5 6 7 8 9 10 11 12 13 14 15 16
000
FTUS43 KMPX 230523
TAFAXN
TAF
KAXN 230523Z 2306/2406 10006KT 1SM -SN BR OVC015
     FM231000 34004KT P6SM VCSH OVC015
     FM231200 31005KT P6SM OVC020
     FM231600 31009KT P6SM OVC030
     FM232000 30010KT P6SM SCT030
     FM240000 28004KT P6SM SKC=

USA.gov is the U.S. government's official web portal to all federal, state and local government web resources and services.